Time;durP1;ratioP1;P1;durP2;ratioP2;P2;SDS_P1;SDS_P2;PMS_P1;PMS_P2;Temp;Humidity;BMP_temperature;BMP_pressure;BME280_temperature;BME280_humidity;BME280_pressure;Samples;Min_cycle;Max_cycle;Signal;HPM_P1;HPM_P2
2023/06/07 00:02:07;;;;;;;0.85;0.85;;;;;;;-146.24;54.76;47051.72;5094490;28;20233;-85
2023/06/07 00:04:35;;;;;;;0.90;0.90;;;;;;;-146.24;54.79;46994.16;5092054;28;20201;-87
2023/06/07 00:07:05;;;;;;;0.90;0.90;;;;;;;-146.24;53.48;46998.00;5091327;28;20235;-86
2023/06/07 00:09:32;;;;;;;1.30;0.98;;;;;;;-146.24;53.72;46986.50;5091231;28;20462;-86
2023/06/07 00:12:00;;;;;;;1.02;1.02;;;;;;;-146.24;54.51;46980.72;5090668;28;20611;-85
2023/06/07 00:14:28;;;;;;;0.98;0.98;;;;;;;-146.24;55.02;46990.31;5091306;28;20201;-85
2023/06/07 00:16:56;;;;;;;1.00;1.00;;;;;;;-146.24;55.29;47001.84;5091342;28;20319;-85
2023/06/07 00:19:25;;;;;;;1.20;1.08;;;;;;;-146.24;55.55;46953.88;5092127;28;20197;-85
2023/06/07 00:21:52;;;;;;;0.98;0.98;;;;;;;-146.24;55.74;47028.69;5091201;28;20205;-87
2023/06/07 00:24:21;;;;;;;1.20;1.10;;;;;;;-146.24;55.72;47009.50;5090394;28;20609;-85
2023/06/07 00:26:51;;;;;;;1.05;1.05;;;;;;;-146.24;55.19;47001.84;5091100;28;20320;-85
2023/06/07 00:29:19;;;;;;;2.05;1.13;;;;;;;-146.24;56.41;46988.41;5091648;28;20208;-85
2023/06/07 00:31:49;;;;;;;1.38;1.25;;;;;;;-146.24;56.60;46994.16;5091328;28;20302;-87
2023/06/07 00:34:16;;;;;;;2.15;1.67;;;;;;;-146.24;55.77;46992.25;5091663;28;20992;-87
2023/06/07 00:36:43;;;;;;;2.80;1.00;;;;;;;-146.24;55.09;47044.06;5090914;28;20684;-85
2023/06/07 00:39:10;;;;;;;1.10;1.08;;;;;;;-146.24;56.13;46973.06;5092751;28;20272;-85
2023/06/07 00:41:39;;;;;;;1.33;1.20;;;;;;;-146.24;57.50;46999.91;5105983;28;20203;-86
2023/06/07 00:44:07;;;;;;;2.67;1.13;;;;;;;-146.24;57.40;46994.16;5112578;28;20209;-85
2023/06/07 00:46:34;;;;;;;1.33;1.00;;;;;;;-146.24;56.89;46986.50;5111036;28;20241;-85
2023/06/07 00:49:02;;;;;;;1.23;1.20;;;;;;;-146.24;57.35;47019.09;5109487;28;20212;-85
2023/06/07 00:51:31;;;;;;;0.95;0.95;;;;;;;-146.24;55.90;47009.50;5104572;28;20207;-85
2023/06/07 00:54:02;;;;;;;1.02;1.02;;;;;;;-146.24;56.68;47021.03;5093542;28;20671;-86
2023/06/07 00:56:31;;;;;;;4.90;1.10;;;;;;;-146.24;57.25;46994.16;5089940;28;20210;-87
2023/06/07 00:59:00;;;;;;;1.20;1.20;;;;;;;-146.24;57.72;46971.16;5089592;28;20503;-87
2023/06/07 01:01:27;;;;;;;1.23;1.13;;;;;;;-146.24;56.39;46961.53;5089829;28;20717;-86
2023/06/07 01:03:55;;;;;;;0.80;0.80;;;;;;;-146.24;57.04;47009.50;5089436;28;20676;-86
2023/06/07 01:06:22;;;;;;;0.70;0.70;;;;;;;-146.24;56.72;46978.81;5089742;28;20473;-86
2023/06/07 01:08:51;;;;;;;0.80;0.80;;;;;;;-146.24;56.33;46998.00;5090242;28;20231;-86
2023/06/07 01:11:22;;;;;;;1.90;1.10;;;;;;;-146.24;55.78;46998.00;5089958;28;20217;-87
2023/06/07 01:13:50;;;;;;;0.73;0.73;;;;;;;-146.24;55.71;46971.16;5089891;28;20211;-87
2023/06/07 01:16:20;;;;;;;1.00;0.95;;;;;;;-146.24;57.01;46986.50;5090203;28;20696;-85
2023/06/07 01:18:47;;;;;;;2.07;0.70;;;;;;;-146.24;56.64;46994.16;5089991;28;20204;-85
2023/06/07 01:21:21;;;;;;;1.30;1.13;;;;;;;-146.24;56.34;46974.97;5089892;28;20741;-85
2023/06/07 01:23:50;;;;;;;1.20;1.20;;;;;;;-146.24;56.84;46967.31;5089786;28;20227;-85
2023/06/07 01:26:18;;;;;;;0.87;0.87;;;;;;;-146.24;56.94;46990.31;5089559;28;20714;-86
2023/06/07 01:28:46;;;;;;;1.37;1.27;;;;;;;-146.24;56.47;46967.31;5090093;28;20205;-86
2023/06/07 01:31:14;;;;;;;2.90;1.40;;;;;;;-146.24;56.97;47032.53;5090113;28;20196;-86
2023/06/07 01:33:43;;;;;;;1.47;1.37;;;;;;;-146.24;58.39;47001.84;5089571;28;20762;-86
2023/06/07 01:36:12;;;;;;;1.77;1.13;;;;;;;-146.24;57.83;47063.22;5088084;28;20231;-86
2023/06/07 01:38:41;;;;;;;1.08;0.75;;;;;;;-146.24;56.97;46999.91;5089326;28;20313;-85
2023/06/07 01:41:11;;;;;;;1.00;0.90;;;;;;;-146.24;57.62;46988.41;5089799;28;20202;-87
2023/06/07 01:43:39;;;;;;;2.25;1.52;;;;;;;-146.24;57.52;46959.63;5088513;28;20768;-85
2023/06/07 01:46:07;;;;;;;0.70;0.70;;;;;;;-146.24;56.39;47003.75;5088226;28;20196;-85
2023/06/07 01:48:37;;;;;;;1.65;1.10;;;;;;;-146.24;56.01;46990.31;5089102;28;20237;-86
2023/06/07 01:51:05;;;;;;;1.35;1.23;;;;;;;-146.24;56.13;46994.16;5089686;28;20216;-86
2023/06/07 01:53:33;;;;;;;0.77;0.77;;;;;;;-146.24;56.07;46990.31;5089723;28;20652;-85
2023/06/07 01:56:09;;;;;;;4.20;0.90;;;;;;;-146.24;55.12;47036.38;5089018;28;20215;-86
2023/06/07 01:58:49;;;;;;;0.73;0.73;;;;;;;-146.24;55.45;47017.19;5088898;28;20299;-87
2023/06/07 02:01:31;;;;;;;1.03;1.00;;;;;;;-146.24;57.56;46963.47;5088974;28;20618;-86
2023/06/07 02:04:04;;;;;;;4.33;0.97;;;;;;;-146.24;58.22;46959.63;5088445;28;20202;-86
2023/06/07 02:06:34;;;;;;;1.00;1.00;;;;;;;-146.24;58.94;46980.72;5087806;28;20196;-84
2023/06/07 02:09:07;;;;;;;1.30;1.20;;;;;;;-146.24;59.06;47001.84;5088808;28;20210;-85
2023/06/07 02:11:38;;;;;;;1.63;1.33;;;;;;;-146.24;61.42;47019.09;5088997;28;20219;-86
2023/06/07 02:14:07;;;;;;;1.73;1.00;;;;;;;-146.24;62.76;46988.41;5089086;28;20203;-86
2023/06/07 02:16:36;;;;;;;1.33;1.27;;;;;;;-146.24;62.13;46990.31;5089135;28;20215;-86
2023/06/07 02:19:06;;;;;;;1.75;1.65;;;;;;;-146.24;62.14;46976.91;5088878;28;20279;-85
2023/06/07 02:21:34;;;;;;;1.20;1.20;;;;;;;-146.24;61.36;46982.66;5088503;28;20224;-86
2023/06/07 02:24:02;;;;;;;1.90;0.83;;;;;;;-146.24;60.41;46955.78;5088843;28;20195;-85
2023/06/07 02:26:30;;;;;;;1.00;0.73;;;;;;;-146.24;59.51;46959.63;5088844;28;20199;-85
2023/06/07 02:28:58;;;;;;;1.20;1.00;;;;;;;-146.24;58.03;47021.03;5088350;28;20200;-85
2023/06/07 02:31:27;;;;;;;0.87;0.87;;;;;;;-146.24;57.83;46950.03;5088536;28;20240;-86
2023/06/07 02:33:54;;;;;;;1.07;1.00;;;;;;;-146.24;57.52;46971.16;5087188;28;20234;-85
2023/06/07 02:36:22;;;;;;;0.93;0.93;;;;;;;-146.24;56.87;46980.72;5088117;28;20203;-85
2023/06/07 02:38:50;;;;;;;1.03;1.03;;;;;;;-146.24;57.20;46990.31;5088198;28;20195;-87
2023/06/07 02:41:17;;;;;;;1.60;0.90;;;;;;;-146.24;56.12;46998.00;5088328;28;20204;-86
2023/06/07 02:43:45;;;;;;;1.53;1.00;;;;;;;-146.24;55.32;46976.91;5087643;28;20200;-86
2023/06/07 02:46:13;;;;;;;1.43;0.90;;;;;;;-146.24;54.61;46994.16;5088729;28;20654;-86
2023/06/07 02:48:42;;;;;;;0.70;0.70;;;;;;;-146.24;55.21;47017.19;5087406;28;20241;-86
2023/06/07 02:51:09;;;;;;;0.63;0.63;;;;;;;-146.24;54.95;46992.25;5087800;28;20202;-87
2023/06/07 02:53:37;;;;;;;0.80;0.77;;;;;;;-146.24;54.14;46978.81;5088363;28;20208;-87
2023/06/07 02:56:05;;;;;;;1.20;1.20;;;;;;;-146.24;54.03;46951.97;5088783;28;20203;-85
2023/06/07 02:58:32;;;;;;;0.80;0.80;;;;;;;-146.24;53.63;46967.31;5087422;28;20729;-85
2023/06/07 03:01:00;;;;;;;0.90;0.90;;;;;;;-146.24;53.32;46980.72;5088846;28;20238;-85
2023/06/07 03:03:27;;;;;;;1.20;0.90;;;;;;;-146.24;52.60;46984.56;5091350;28;20226;-85
2023/06/07 03:05:59;;;;;;;1.93;0.70;;;;;;;-146.24;51.94;47005.69;5087997;28;20195;-85
2023/06/07 03:08:28;;;;;;;1.07;1.07;;;;;;;-146.24;51.01;46992.25;5088975;28;20232;-86
2023/06/07 03:10:55;;;;;;;1.23;0.70;;;;;;;-146.24;50.33;46994.16;5089458;28;20228;-86
2023/06/07 03:13:23;;;;;;;0.80;0.80;;;;;;;-146.24;50.71;46980.72;5088870;28;20200;-86
2023/06/07 03:15:50;;;;;;;1.00;1.00;;;;;;;-146.24;51.82;47009.50;5089537;28;20214;-86
2023/06/07 03:18:18;;;;;;;1.13;1.13;;;;;;;-146.24;52.11;46982.66;5092528;28;20211;-86
2023/06/07 03:20:45;;;;;;;1.08;1.08;;;;;;;-146.24;51.99;46984.56;5094925;28;20261;-86
2023/06/07 03:23:15;;;;;;;0.82;0.82;;;;;;;-146.24;53.16;46994.16;5092633;28;20217;-85
2023/06/07 03:25:47;;;;;;;1.00;1.00;;;;;;;-146.24;54.10;46982.66;5092382;28;20210;-86
2023/06/07 03:28:15;;;;;;;3.15;1.35;;;;;;;-146.24;54.11;47005.69;5091302;28;20239;-84
2023/06/07 03:30:43;;;;;;;1.65;1.55;;;;;;;-146.24;54.52;47055.56;5091109;28;20289;-86
2023/06/07 03:33:12;;;;;;;1.30;1.20;;;;;;;-146.24;54.67;47001.84;5092110;28;20209;-87
2023/06/07 03:35:39;;;;;;;1.83;1.23;;;;;;;-146.24;54.67;47013.34;5090952;28;20206;-86
2023/06/07 03:38:07;;;;;;;1.13;1.13;;;;;;;-146.24;54.77;46988.41;5091022;28;20220;-86
2023/06/07 03:40:36;;;;;;;1.42;1.33;;;;;;;-146.24;54.28;47024.88;5091744;28;21131;-85
2023/06/07 03:43:05;;;;;;;1.70;1.20;;;;;;;-146.24;53.96;46967.31;5091428;28;20200;-87
2023/06/07 03:45:32;;;;;;;0.98;0.98;;;;;;;-146.24;53.14;46992.25;5091629;28;20350;-86
2023/06/07 03:48:00;;;;;;;1.40;1.00;;;;;;;-146.24;52.52;46986.50;5092203;28;20237;-87
2023/06/07 03:50:27;;;;;;;1.17;1.13;;;;;;;-146.24;52.55;47036.38;5091952;28;20258;-86
2023/06/07 03:52:55;;;;;;;2.15;1.42;;;;;;;-146.24;52.47;47013.34;5091485;28;20210;-87
2023/06/07 03:55:23;;;;;;;1.80;1.60;;;;;;;-146.24;50.64;47009.50;5091715;28;20294;-86
2023/06/07 03:57:51;;;;;;;39.28;13.38;;;;;;;-146.24;49.82;47032.53;5090823;28;20199;-87
2023/06/07 04:00:26;;;;;;;3.70;1.77;;;;;;;-146.24;52.42;47063.22;5091861;28;20205;-86
2023/06/07 04:02:55;;;;;;;1.58;1.40;;;;;;;-146.24;50.92;47021.03;5091326;28;20274;-86
2023/06/07 04:05:26;;;;;;;1.00;0.90;;;;;;;-146.24;50.18;47044.06;5089960;28;20201;-86
2023/06/07 04:07:59;;;;;;;1.27;1.15;;;;;;;-146.24;49.54;47021.03;5091828;28;20253;-87
2023/06/07 04:10:26;;;;;;;1.52;0.70;;;;;;;-146.24;49.27;46971.16;5091622;28;20650;-87
2023/06/07 04:12:55;;;;;;;0.70;0.70;;;;;;;-146.24;48.63;46994.16;5091843;28;20230;-85
2023/06/07 04:15:22;;;;;;;1.17;1.08;;;;;;;-146.24;47.51;47036.38;5091411;28;20675;-85
2023/06/07 04:17:50;;;;;;;0.82;0.82;;;;;;;-146.24;43.64;47088.19;5091250;28;20269;-86
2023/06/07 04:20:18;;;;;;;2.30;0.75;;;;;;;-146.24;40.83;47067.06;5091064;28;20268;-85
2023/06/07 04:22:52;;;;;;;1.38;1.30;;;;;;;-146.24;36.17;47187.94;5091505;28;20205;-87
2023/06/07 04:25:21;;;;;;;1.10;1.10;;;;;;;-146.24;35.49;47143.81;5091123;28;20206;-87
2023/06/07 04:27:51;;;;;;;1.13;1.13;;;;;;;-146.24;34.29;47189.88;5090713;28;20630;-86
2023/06/07 04:30:23;;;;;;;1.13;1.13;;;;;;;-146.24;34.07;47216.72;5090533;28;20210;-88
2023/06/07 04:32:52;;;;;;;0.88;0.85;;;;;;;-146.24;35.05;47186.03;5091345;28;20284;-87
2023/06/07 04:35:23;;;;;;;1.42;1.23;;;;;;;-146.24;35.79;47143.81;5091858;28;20198;-86
2023/06/07 04:37:51;;;;;;;1.00;0.98;;;;;;;-146.24;38.06;47095.84;5091140;28;20248;-86
2023/06/07 04:40:21;;;;;;;1.30;1.30;;;;;;;-146.24;38.11;47080.50;5076088;28;20237;-86
2023/06/07 04:42:55;;;;;;;1.30;0.90;;;;;;;-146.24;38.08;47139.97;5071235;28;20268;-87
2023/06/07 04:45:31;;;;;;;2.97;1.23;;;;;;;-146.24;38.89;47111.19;5070621;28;20713;-86
2023/06/07 04:48:06;;;;;;;1.70;1.60;;;;;;;-146.24;38.38;47174.53;5069455;28;20234;-87
2023/06/07 04:50:34;;;;;;;1.27;1.27;;;;;;;-146.24;38.00;47130.38;5071406;28;20201;-85
2023/06/07 04:53:02;;;;;;;2.17;1.30;;;;;;;-146.24;36.90;47166.84;5070814;28;20272;-86
2023/06/07 04:55:34;;;;;;;1.38;1.35;;;;;;;-146.24;37.80;47136.16;5071191;28;20199;-87
2023/06/07 04:58:04;;;;;;;0.80;0.80;;;;;;;-146.24;34.47;47203.28;5070439;28;20199;-86
2023/06/07 05:00:38;;;;;;;5.20;1.40;;;;;;;-146.24;33.56;47278.13;5070563;28;20312;-87
2023/06/07 05:03:08;;;;;;;0.90;0.90;;;;;;;-146.24;34.20;47199.47;5068001;28;20285;-88
2023/06/07 05:05:41;;;;;;;1.38;1.05;;;;;;;-146.24;35.61;47191.78;5078835;28;20202;-87
2023/06/07 05:08:10;;;;;;;1.48;1.10;;;;;;;-146.24;34.52;47228.25;5072907;28;20242;-86
2023/06/07 05:10:40;;;;;;;1.42;1.25;;;;;;;-146.24;36.69;47163.00;5068838;28;20616;-87
2023/06/07 05:13:08;;;;;;;1.00;1.00;;;;;;;-146.24;36.62;47147.66;5070044;28;20248;-86
2023/06/07 05:19:13;;;;;;;;;;;;;;;;;;;;;
2023/06/07 05:21:56;;;;;;;3.13;1.10;;;;;;;-146.24;35.12;47174.53;5035244;28;20190;-87
2023/06/07 05:24:34;;;;;;;1.20;1.10;;;;;;;-146.24;34.93;47212.88;5070084;28;20242;-86
2023/06/07 05:27:39;;;;;;;;;;;;;;;;;;;;;
2023/06/07 05:30:20;;;;;;;;;;;;;;;;;;;;;
2023/06/07 05:33:27;;;;;;;;;;;;;;;;;;;;;
2023/06/07 05:36:17;;;;;;;1.50;1.40;;;;;;;-146.24;36.34;47189.88;4984153;28;20217;-87
2023/06/07 05:38:58;;;;;;;;;;;;;;;;;;;;;
2023/06/07 05:41:54;;;;;;;3.20;1.30;;;;;;;-146.24;37.35;47172.59;5067639;28;20675;-87
2023/06/07 05:44:30;;;;;;;1.33;1.13;;;;;;;-146.24;37.91;47145.75;5066070;28;20226;-87
2023/06/07 05:47:20;;;;;;;1.23;1.23;;;;;;;-146.24;38.00;47186.03;5069373;28;20191;-88
2023/06/07 05:50:33;;;;;;;6.03;1.08;;;;;;;-146.24;37.63;47193.69;5074253;28;20352;-88
2023/06/07 05:53:10;;;;;;;1.05;1.05;;;;;;;-146.24;37.42;47186.03;5060171;28;20225;-87
2023/06/07 05:55:37;;;;;;;1.25;1.25;;;;;;;-146.24;36.48;47178.34;5073334;28;20194;-88
2023/06/07 05:58:08;;;;;;;2.53;1.38;;;;;;;-146.24;35.96;47186.03;5078979;28;20213;-87
2023/06/07 06:00:40;;;;;;;4.97;1.48;;;;;;;-146.24;35.41;47203.28;5085303;28;20279;-88
2023/06/07 06:03:10;;;;;;;1.08;0.98;;;;;;;-146.24;34.42;47280.03;5090887;28;20226;-86
2023/06/07 06:05:41;;;;;;;1.50;1.40;;;;;;;-146.24;34.36;47305.00;5090444;28;20270;-87
2023/06/07 06:08:16;;;;;;;1.23;1.15;;;;;;;-146.24;33.55;47260.84;5091008;28;20232;-87
2023/06/07 06:10:46;;;;;;;1.10;1.10;;;;;;;-146.24;34.26;47308.81;5096035;28;20209;-86
2023/06/07 06:13:22;;;;;;;2.38;1.02;;;;;;;-146.24;34.18;47207.13;5091590;28;20233;-86
2023/06/07 06:15:50;;;;;;;1.40;1.30;;;;;;;-146.24;35.15;47262.78;5089750;28;20618;-86
2023/06/07 06:18:18;;;;;;;1.40;1.30;;;;;;;-146.24;36.14;47193.69;5094176;28;20194;-86
2023/06/07 06:20:50;;;;;;;1.02;1.02;;;;;;;-146.24;36.79;47235.91;5093589;28;20194;-88
2023/06/07 06:23:21;;;;;;;4.43;1.40;;;;;;;-146.24;37.21;47203.28;5090670;28;20201;-87
2023/06/07 06:25:53;;;;;;;2.55;1.17;;;;;;;-146.24;37.33;47184.09;5090595;28;20224;-85
2023/06/07 06:28:21;;;;;;;1.25;0.85;;;;;;;-146.24;35.93;47234.00;5092169;28;20630;-84
2023/06/07 06:30:50;;;;;;;1.25;1.15;;;;;;;-146.24;36.51;47230.16;5090217;28;20201;-87
2023/06/07 06:33:20;;;;;;;3.78;1.52;;;;;;;-146.24;36.04;47228.25;5092050;28;20221;-86
2023/06/07 06:35:53;;;;;;;1.40;1.20;;;;;;;-146.24;35.66;47268.53;5089263;28;20443;-87
2023/06/07 06:38:22;;;;;;;1.27;1.23;;;;;;;-146.24;36.05;47234.00;5090629;28;20464;-86
2023/06/07 06:40:53;;;;;;;1.67;1.60;;;;;;;-146.24;35.61;47193.69;5089544;28;20190;-87
2023/06/07 06:43:23;;;;;;;1.10;1.10;;;;;;;-146.24;36.49;47210.97;5091185;28;20190;-87
2023/06/07 06:45:54;;;;;;;1.25;1.25;;;;;;;-146.24;35.68;47264.69;5088998;28;20322;-88
2023/06/07 06:48:23;;;;;;;1.30;1.20;;;;;;;-146.24;35.68;47264.69;5087132;28;20241;-87
2023/06/07 06:50:51;;;;;;;1.48;1.38;;;;;;;-146.24;35.68;47264.69;5092099;28;20709;-86
2023/06/07 06:53:20;;;;;;;1.60;1.50;;;;;;;-146.24;35.68;47264.69;5089242;28;20452;-87
2023/06/07 06:55:52;;;;;;;2.22;1.45;;;;;;;-146.24;30.81;47400.94;5090896;28;20206;-86
2023/06/07 06:58:20;;;;;;;1.42;1.40;;;;;;;-146.24;30.81;47400.94;5089013;28;20197;-85
2023/06/07 07:00:48;;;;;;;3.03;1.25;;;;;;;-146.24;30.81;47400.94;5089377;28;20230;-85
2023/06/07 07:03:18;;;;;;;2.65;1.52;;;;;;;-146.24;31.85;47391.34;5049886;28;20195;-86
2023/06/07 07:05:48;;;;;;;1.48;1.48;;;;;;;-146.24;32.50;47393.25;5047422;28;20214;-86
2023/06/07 07:08:18;;;;;;;3.28;1.27;;;;;;;-146.24;32.50;47393.25;5048567;28;20326;-87
2023/06/07 07:10:47;;;;;;;1.25;1.25;;;;;;;-146.24;32.43;47320.34;5039907;28;20255;-86
2023/06/07 07:13:19;;;;;;;1.27;1.27;;;;;;;-146.24;32.43;47320.34;5031132;28;20534;-87
2023/06/07 07:15:49;;;;;;;1.17;1.17;;;;;;;-146.24;32.43;47320.34;5045441;28;20227;-88
2023/06/07 07:18:17;;;;;;;1.45;1.45;;;;;;;-146.24;32.43;47320.34;5049887;28;20223;-87
2023/06/07 07:20:49;;;;;;;1.23;1.17;;;;;;;-146.24;32.43;47320.34;5051041;28;20224;-85
2023/06/07 07:23:19;;;;;;;2.15;1.30;;;;;;;-146.24;32.43;47320.34;5047195;28;20223;-85
2023/06/07 07:25:46;;;;;;;1.23;1.20;;;;;;;-146.24;32.43;47320.34;5050967;28;20233;-87
2023/06/07 07:28:17;;;;;;;1.20;1.20;;;;;;;-146.24;32.43;47320.34;5047894;28;20238;-87
2023/06/07 07:30:47;;;;;;;1.27;1.17;;;;;;;-146.24;32.43;47320.34;5047672;28;20788;-86
2023/06/07 07:33:18;;;;;;;1.20;1.15;;;;;;;-146.24;32.43;47320.34;5048225;28;20245;-87
2023/06/07 07:36:15;;;;;;;;;;;;;;;;;;;;;
2023/06/07 07:38:54;;;;;;;0.95;0.95;;;;;;;-146.24;32.43;47320.34;5051254;28;20240;-87
2023/06/07 07:41:22;;;;;;;1.27;1.27;;;;;;;-146.24;32.43;47320.34;5050811;28;20238;-86
2023/06/07 07:43:52;;;;;;;1.35;1.35;;;;;;;-146.24;32.43;47320.34;5049482;28;20365;-86
2023/06/07 07:46:19;;;;;;;1.58;1.40;;;;;;;-146.24;32.43;47320.34;5047791;28;20211;-87
2023/06/07 07:48:46;;;;;;;1.65;1.27;;;;;;;-146.24;32.43;47320.34;5048679;28;20714;-85
2023/06/07 07:51:19;;;;;;;1.60;1.55;;;;;;;-146.24;32.43;47320.34;5047637;28;20294;-86
2023/06/07 07:53:47;;;;;;;1.50;1.40;;;;;;;-146.24;32.43;47320.34;5045517;28;20274;-86
2023/06/07 07:56:14;;;;;;;1.48;1.38;;;;;;;-146.24;32.43;47320.34;5028748;28;20220;-86
2023/06/07 07:58:42;;;;;;;2.33;1.17;;;;;;;-146.24;32.43;47320.34;5031109;28;20249;-87
2023/06/07 08:01:10;;;;;;;1.15;1.15;;;;;;;-146.24;32.43;47320.34;5038696;28;20255;-86
2023/06/07 08:03:39;;;;;;;1.13;1.13;;;;;;;-146.24;32.43;47320.34;5068895;28;20223;-87
2023/06/07 08:06:07;;;;;;;1.67;1.58;;;;;;;-146.24;32.43;47320.34;5071608;28;20225;-85
2023/06/07 08:08:35;;;;;;;1.30;1.30;;;;;;;-146.24;32.43;47320.34;5074451;28;20250;-87
2023/06/07 08:11:02;;;;;;;1.52;1.27;;;;;;;-146.24;32.43;47320.34;5086334;28;20232;-86
2023/06/07 08:13:30;;;;;;;1.17;1.10;;;;;;;-146.24;32.43;47320.34;5094876;28;20218;-87
2023/06/07 08:15:57;;;;;;;2.55;1.13;;;;;;;-146.24;32.43;47320.34;5092674;28;20226;-87
2023/06/07 08:18:26;;;;;;;1.42;1.33;;;;;;;-146.24;32.43;47320.34;5092628;28;20229;-86
2023/06/07 08:20:54;;;;;;;4.50;1.33;;;;;;;-146.24;32.43;47320.34;5090704;28;20229;-87
2023/06/07 08:23:21;;;;;;;1.63;1.55;;;;;;;-146.24;32.43;47320.34;5089885;28;20233;-87
2023/06/07 08:25:48;;;;;;;1.30;1.30;;;;;;;-146.24;32.43;47320.34;5089145;28;20225;-87
2023/06/07 08:28:16;;;;;;;1.15;1.15;;;;;;;-146.24;32.43;47320.34;5090375;28;20229;-87
2023/06/07 08:30:44;;;;;;;1.10;1.10;;;;;;;-146.24;32.43;47320.34;5090404;28;20230;-86
2023/06/07 08:33:11;;;;;;;2.33;1.35;;;;;;;-146.24;32.43;47320.34;5089516;28;20234;-85
2023/06/07 08:35:40;;;;;;;1.20;1.20;;;;;;;-146.24;32.43;47320.34;5090825;28;20283;-87
2023/06/07 08:38:07;;;;;;;2.90;1.45;;;;;;;-146.24;32.43;47320.34;5091189;28;20222;-87
2023/06/07 08:40:36;;;;;;;1.30;1.30;;;;;;;-146.24;32.43;47320.34;5082312;28;20226;-87
2023/06/07 08:43:04;;;;;;;1.10;1.10;;;;;;;-146.24;32.43;47320.34;5071422;28;20313;-86
2023/06/07 08:45:32;;;;;;;1.20;1.10;;;;;;;-146.24;32.43;47320.34;5069279;28;20582;-86
2023/06/07 08:48:05;;;;;;;1.63;1.52;;;;;;;-146.24;32.43;47320.34;5070987;28;20300;-87
2023/06/07 08:50:32;;;;;;;1.60;1.60;;;;;;;-146.24;32.43;47320.34;5070222;28;20677;-87
2023/06/07 08:53:09;;;;;;;1.38;1.38;;;;;;;-146.24;32.43;47320.34;5070991;28;20230;-85
2023/06/07 08:55:38;;;;;;;1.50;1.40;;;;;;;-146.24;32.43;47320.34;5068872;28;20276;-86
2023/06/07 08:58:08;;;;;;;1.88;1.77;;;;;;;-146.24;32.43;47320.34;5070146;28;20275;-87
2023/06/07 09:00:36;;;;;;;1.90;1.80;;;;;;;-146.24;32.43;47320.34;5070181;28;20227;-86
2023/06/07 09:03:04;;;;;;;1.13;1.13;;;;;;;-146.24;32.43;47320.34;5070569;28;20341;-86
2023/06/07 09:05:31;;;;;;;1.50;1.40;;;;;;;-146.24;32.43;47320.34;5069810;28;20272;-87
2023/06/07 09:07:58;;;;;;;1.30;1.30;;;;;;;-146.24;32.43;47320.34;5071087;28;20230;-86
2023/06/07 09:10:28;;;;;;;1.08;1.08;;;;;;;-146.24;32.43;47320.34;5068683;28;20680;-87
2023/06/07 09:12:55;;;;;;;2.33;1.25;;;;;;;-146.24;32.43;47320.34;5070450;28;20214;-86
2023/06/07 09:15:23;;;;;;;1.35;1.35;;;;;;;-146.24;32.43;47320.34;5068318;28;20253;-87
2023/06/07 09:17:53;;;;;;;1.80;1.30;;;;;;;-146.24;32.43;47320.34;5070033;28;20258;-87
2023/06/07 09:20:21;;;;;;;1.05;1.05;;;;;;;-146.24;32.43;47320.34;5069467;28;20420;-86
2023/06/07 09:23:00;;;;;;;1.20;1.20;;;;;;;-146.24;32.43;47320.34;5071116;28;20781;-87
2023/06/07 09:25:30;;;;;;;2.65;1.80;;;;;;;-146.24;32.43;47320.34;5070677;28;20238;-87
2023/06/07 09:27:57;;;;;;;1.88;1.77;;;;;;;-146.24;32.43;47320.34;5069348;28;20442;-87
2023/06/07 09:30:26;;;;;;;1.42;1.30;;;;;;;-146.24;32.43;47320.34;5071507;28;20238;-86
2023/06/07 09:32:53;;;;;;;1.70;1.60;;;;;;;-146.24;32.43;47320.34;5070112;28;20230;-87
2023/06/07 09:35:21;;;;;;;1.25;1.25;;;;;;;-146.24;32.43;47320.34;5071187;28;20284;-87
2023/06/07 09:37:51;;;;;;;5.22;2.30;;;;;;;-146.24;32.43;47320.34;5070225;28;20223;-86
2023/06/07 09:40:19;;;;;;;1.80;1.70;;;;;;;-146.24;32.43;47320.34;5070731;28;20219;-85
2023/06/07 09:42:58;;;;;;;1.52;1.42;;;;;;;-146.24;32.43;47320.34;5071160;28;20513;-87
2023/06/07 09:45:26;;;;;;;1.58;1.48;;;;;;;-146.24;32.43;47320.34;5071940;28;20289;-86
2023/06/07 09:48:03;;;;;;;2.00;1.55;;;;;;;-146.24;32.43;47320.34;5070178;28;20250;-86
2023/06/07 09:50:31;;;;;;;1.40;1.30;;;;;;;-146.24;32.43;47320.34;5071412;28;20434;-85
2023/06/07 09:53:01;;;;;;;0.90;0.90;;;;;;;-146.24;37.11;47253.19;5069279;28;20219;-87
2023/06/07 09:55:29;;;;;;;1.40;1.30;;;;;;;-146.24;37.28;47258.94;5069259;28;20223;-85
2023/06/07 09:57:59;;;;;;;1.30;1.30;;;;;;;-146.24;37.28;47258.94;5069685;28;20280;-86
2023/06/07 10:00:28;;;;;;;1.50;1.40;;;;;;;-146.24;37.28;47258.94;5069325;28;20240;-87
2023/06/07 10:03:05;;;;;;;1.40;1.40;;;;;;;-146.24;37.28;47258.94;5069375;28;20243;-86
2023/06/07 10:05:32;;;;;;;1.15;1.15;;;;;;;-146.24;37.28;47258.94;5070630;28;20621;-87
2023/06/07 10:08:00;;;;;;;3.08;1.70;;;;;;;-146.24;37.28;47258.94;5069903;28;20222;-85
2023/06/07 10:10:27;;;;;;;1.77;1.25;;;;;;;-146.24;37.28;47258.94;5069786;28;20226;-85
2023/06/07 10:12:58;;;;;;;1.02;1.02;;;;;;;-146.24;37.28;47258.94;5069921;28;20239;-87
2023/06/07 10:15:28;;;;;;;1.05;0.95;;;;;;;-146.24;37.28;47258.94;5069498;28;20223;-87
2023/06/07 10:17:58;;;;;;;1.30;1.30;;;;;;;-146.24;37.28;47258.94;5071884;28;20261;-86
2023/06/07 10:20:30;;;;;;;1.40;1.40;;;;;;;-146.24;37.28;47258.94;5076546;28;20679;-88
2023/06/07 10:23:03;;;;;;;1.27;1.23;;;;;;;-146.24;37.28;47258.94;5067128;28;20222;-85
2023/06/07 10:25:38;;;;;;;1.25;1.25;;;;;;;-146.25;100.00;57403.91;5067951;28;20238;-87
2023/06/07 10:28:20;;;;;;;1.00;1.00;;;;;;;-146.25;100.00;57403.91;5065739;28;20268;-87
2023/06/07 10:30:54;;;;;;;1.52;1.50;;;;;;;-146.25;100.00;57403.91;5066984;28;20238;-88
2023/06/07 10:33:25;;;;;;;1.10;1.00;;;;;;;-146.25;100.00;57403.91;5066985;28;20726;-86
2023/06/07 10:35:52;;;;;;;1.35;1.35;;;;;;;-146.25;100.00;57403.91;5066866;28;20276;-86
2023/06/07 10:38:20;;;;;;;1.30;1.25;;;;;;;-146.25;100.00;57403.91;5065775;28;20245;-85
2023/06/07 10:40:47;;;;;;;1.08;1.08;;;;;;;-146.25;100.00;57403.91;5067149;28;20733;-87
2023/06/07 10:43:14;;;;;;;1.63;1.52;;;;;;;-146.25;100.00;57403.91;5066074;28;20560;-85
2023/06/07 10:45:42;;;;;;;1.48;1.30;;;;;;;-146.25;100.00;57403.91;5067048;28;20222;-86
2023/06/07 10:48:34;;;;;;;1.70;1.60;;;;;;;-146.25;100.00;57403.91;5066822;28;20229;-87
2023/06/07 10:51:02;;;;;;;1.35;1.25;;;;;;;-146.25;100.00;57403.91;5067488;28;20230;-86
2023/06/07 10:53:51;;;;;;;1.63;1.52;;;;;;;-146.25;100.00;57403.91;5066526;28;20790;-88
2023/06/07 10:56:30;;;;;;;1.40;1.40;;;;;;;-146.25;100.00;57403.91;5087703;28;20225;-86
2023/06/07 10:59:19;;;;;;;4.03;1.30;;;;;;;-146.25;100.00;57403.91;5087682;28;20206;-87
2023/06/07 11:01:48;;;;;;;1.45;1.35;;;;;;;-146.25;100.00;57403.91;5087732;28;20230;-85
2023/06/07 11:04:54;;;;;;;1.55;1.55;;;;;;;-146.25;100.00;57403.91;5087947;28;20734;-86
2023/06/07 11:07:25;;;;;;;2.05;1.95;;;;;;;-146.25;100.00;57403.91;5067945;28;20662;-86
2023/06/07 11:10:26;;;;;;;1.92;1.60;;;;;;;-146.25;100.00;57403.91;5087656;28;20298;-88
2023/06/07 11:12:57;;;;;;;1.10;1.10;;;;;;;-146.25;100.00;57403.91;5087936;28;20239;-86
2023/06/07 11:15:35;;;;;;;2.25;1.33;;;;;;;-146.25;100.00;57403.91;5087928;28;20683;-88
2023/06/07 11:18:04;;;;;;;1.20;1.20;;;;;;;-146.25;100.00;57403.91;5087425;28;20205;-85
2023/06/07 11:20:52;;;;;;;8.30;1.70;;;;;;;-146.25;100.00;57403.91;5087679;28;20667;-86
2023/06/07 11:23:23;;;;;;;2.42;2.33;;;;;;;-146.25;100.00;57403.91;5088180;28;20204;-87
2023/06/07 11:25:52;;;;;;;1.30;1.30;;;;;;;-146.25;100.00;57403.91;5087841;28;20212;-86
2023/06/07 11:28:26;;;;;;;3.55;1.25;;;;;;;-146.25;100.00;57403.91;5087391;28;20206;-88
2023/06/07 11:30:54;;;;;;;1.60;1.35;;;;;;;-146.25;100.00;57403.91;5087058;28;20242;-88
2023/06/07 11:33:23;;;;;;;1.05;1.05;;;;;;;-146.25;100.00;57403.91;5088136;28;20285;-88
2023/06/07 11:35:51;;;;;;;1.10;1.10;;;;;;;-146.25;100.00;57403.91;5087629;28;20206;-87
2023/06/07 11:38:18;;;;;;;1.67;1.58;;;;;;;-146.25;100.00;57403.91;5087046;28;20226;-85
2023/06/07 11:40:47;;;;;;;1.20;1.20;;;;;;;-146.25;100.00;57403.91;5091207;28;20205;-86
2023/06/07 11:43:16;;;;;;;2.83;1.20;;;;;;;-146.25;100.00;57403.91;5092710;28;20275;-87
2023/06/07 11:45:44;;;;;;;2.65;1.10;;;;;;;-146.25;100.00;57403.91;5091528;28;20255;-86